sensor_id;sensor_type;location;lat;lon;timestamp;P1;durP1;ratioP1;P2;durP2;ratioP2
46322;SDS011;32044;52.386;13.278;2023-10-13T00:01:56;9.63;;;5.55;;
46322;SDS011;32044;52.386;13.278;2023-10-13T00:04:25;11.25;;;5.32;;
46322;SDS011;32044;52.386;13.278;2023-10-13T00:06:53;24.42;;;6.47;;
46322;SDS011;32044;52.386;13.278;2023-10-13T00:09:24;10.38;;;5.65;;
46322;SDS011;32044;52.386;13.278;2023-10-13T00:11:52;11.43;;;5.72;;
46322;SDS011;32044;52.386;13.278;2023-10-13T00:14:20;10.27;;;6.00;;
46322;SDS011;32044;52.386;13.278;2023-10-13T00:16:48;13.82;;;6.78;;
46322;SDS011;32044;52.386;13.278;2023-10-13T00:19:30;12.60;;;6.38;;
46322;SDS011;32044;52.386;13.278;2023-10-13T00:22:06;13.80;;;6.68;;
46322;SDS011;32044;52.386;13.278;2023-10-13T00:24:38;16.45;;;7.38;;
46322;SDS011;32044;52.386;13.278;2023-10-13T00:27:12;18.38;;;7.72;;
46322;SDS011;32044;52.386;13.278;2023-10-13T00:29:56;14.30;;;7.63;;
46322;SDS011;32044;52.386;13.278;2023-10-13T00:32:44;15.85;;;7.88;;
46322;SDS011;32044;52.386;13.278;2023-10-13T00:35:13;13.20;;;7.72;;
46322;SDS011;32044;52.386;13.278;2023-10-13T00:37:51;15.75;;;6.93;;
46322;SDS011;32044;52.386;13.278;2023-10-13T00:40:21;20.30;;;8.77;;
46322;SDS011;32044;52.386;13.278;2023-10-13T00:43:03;19.17;;;8.63;;
46322;SDS011;32044;52.386;13.278;2023-10-13T00:45:52;13.40;;;8.18;;
46322;SDS011;32044;52.386;13.278;2023-10-13T00:51:00;17.92;;;10.02;;
46322;SDS011;32044;52.386;13.278;2023-10-13T00:53:29;18.15;;;9.50;;
46322;SDS011;32044;52.386;13.278;2023-10-13T00:56:01;16.00;;;10.80;;
46322;SDS011;32044;52.386;13.278;2023-10-13T00:58:33;17.83;;;11.20;;
46322;SDS011;32044;52.386;13.278;2023-10-13T01:01:00;15.48;;;10.50;;
46322;SDS011;32044;52.386;13.278;2023-10-13T01:03:45;18.00;;;11.70;;
46322;SDS011;32044;52.386;13.278;2023-10-13T01:06:11;18.95;;;11.68;;
46322;SDS011;32044;52.386;13.278;2023-10-13T01:08:40;18.67;;;11.27;;
46322;SDS011;32044;52.386;13.278;2023-10-13T01:11:11;18.98;;;12.85;;
46322;SDS011;32044;52.386;13.278;2023-10-13T01:13:39;18.00;;;11.77;;
46322;SDS011;32044;52.386;13.278;2023-10-13T01:16:08;17.58;;;12.65;;
46322;SDS011;32044;52.386;13.278;2023-10-13T01:18:40;21.95;;;12.23;;
46322;SDS011;32044;52.386;13.278;2023-10-13T01:21:15;19.38;;;12.60;;
46322;SDS011;32044;52.386;13.278;2023-10-13T01:23:48;21.80;;;14.10;;
46322;SDS011;32044;52.386;13.278;2023-10-13T01:26:17;19.55;;;12.63;;
46322;SDS011;32044;52.386;13.278;2023-10-13T01:28:50;15.70;;;12.43;;
46322;SDS011;32044;52.386;13.278;2023-10-13T01:31:18;17.75;;;11.90;;
46322;SDS011;32044;52.386;13.278;2023-10-13T01:33:57;21.77;;;12.52;;
46322;SDS011;32044;52.386;13.278;2023-10-13T01:36:25;25.58;;;14.38;;
46322;SDS011;32044;52.386;13.278;2023-10-13T01:38:55;22.13;;;13.70;;
46322;SDS011;32044;52.386;13.278;2023-10-13T01:41:22;20.58;;;14.82;;
46322;SDS011;32044;52.386;13.278;2023-10-13T01:43:49;21.00;;;13.95;;
46322;SDS011;32044;52.386;13.278;2023-10-13T01:46:16;22.20;;;13.77;;
46322;SDS011;32044;52.386;13.278;2023-10-13T01:51:14;19.40;;;13.80;;
46322;SDS011;32044;52.386;13.278;2023-10-13T01:53:42;25.30;;;14.77;;
46322;SDS011;32044;52.386;13.278;2023-10-13T01:56:10;20.10;;;13.68;;
46322;SDS011;32044;52.386;13.278;2023-10-13T01:58:38;26.70;;;15.13;;
46322;SDS011;32044;52.386;13.278;2023-10-13T02:01:08;22.20;;;14.52;;
46322;SDS011;32044;52.386;13.278;2023-10-13T02:03:37;23.70;;;15.10;;
46322;SDS011;32044;52.386;13.278;2023-10-13T02:06:09;28.02;;;15.95;;
46322;SDS011;32044;52.386;13.278;2023-10-13T02:08:44;27.35;;;15.30;;
46322;SDS011;32044;52.386;13.278;2023-10-13T02:13:45;33.47;;;16.30;;
46322;SDS011;32044;52.386;13.278;2023-10-13T02:16:14;32.33;;;17.33;;
46322;SDS011;32044;52.386;13.278;2023-10-13T02:18:48;26.65;;;16.17;;
46322;SDS011;32044;52.386;13.278;2023-10-13T02:21:18;29.55;;;15.88;;
46322;SDS011;32044;52.386;13.278;2023-10-13T02:23:45;28.38;;;15.73;;
46322;SDS011;32044;52.386;13.278;2023-10-13T02:26:28;26.08;;;14.93;;
46322;SDS011;32044;52.386;13.278;2023-10-13T02:28:57;25.73;;;15.05;;
46322;SDS011;32044;52.386;13.278;2023-10-13T02:31:27;30.88;;;16.58;;
46322;SDS011;32044;52.386;13.278;2023-10-13T02:33:54;24.02;;;15.00;;
46322;SDS011;32044;52.386;13.278;2023-10-13T02:36:22;32.85;;;16.45;;
46322;SDS011;32044;52.386;13.278;2023-10-13T02:38:49;28.23;;;15.70;;
46322;SDS011;32044;52.386;13.278;2023-10-13T02:41:19;24.02;;;14.77;;
46322;SDS011;32044;52.386;13.278;2023-10-13T02:43:54;31.73;;;15.32;;
46322;SDS011;32044;52.386;13.278;2023-10-13T02:46:22;28.15;;;15.85;;
46322;SDS011;32044;52.386;13.278;2023-10-13T02:48:51;29.42;;;16.10;;
46322;SDS011;32044;52.386;13.278;2023-10-13T02:51:19;32.95;;;16.65;;
46322;SDS011;32044;52.386;13.278;2023-10-13T02:53:52;31.63;;;15.38;;
46322;SDS011;32044;52.386;13.278;2023-10-13T02:56:18;33.30;;;15.65;;
46322;SDS011;32044;52.386;13.278;2023-10-13T02:58:48;30.80;;;16.40;;
46322;SDS011;32044;52.386;13.278;2023-10-13T03:01:21;30.52;;;17.23;;
46322;SDS011;32044;52.386;13.278;2023-10-13T03:03:49;32.40;;;17.52;;
46322;SDS011;32044;52.386;13.278;2023-10-13T03:06:21;29.50;;;16.80;;
46322;SDS011;32044;52.386;13.278;2023-10-13T03:08:51;35.85;;;17.77;;
46322;SDS011;32044;52.386;13.278;2023-10-13T03:11:19;35.20;;;18.00;;
46322;SDS011;32044;52.386;13.278;2023-10-13T03:13:48;37.78;;;19.05;;
46322;SDS011;32044;52.386;13.278;2023-10-13T03:16:18;38.63;;;19.00;;
46322;SDS011;32044;52.386;13.278;2023-10-13T03:18:47;33.03;;;19.27;;
46322;SDS011;32044;52.386;13.278;2023-10-13T03:21:20;36.85;;;19.52;;
46322;SDS011;32044;52.386;13.278;2023-10-13T03:23:58;38.03;;;19.65;;
46322;SDS011;32044;52.386;13.278;2023-10-13T03:26:33;32.75;;;18.65;;
46322;SDS011;32044;52.386;13.278;2023-10-13T03:29:01;39.60;;;20.35;;
46322;SDS011;32044;52.386;13.278;2023-10-13T03:31:30;40.55;;;20.95;;
46322;SDS011;32044;52.386;13.278;2023-10-13T03:34:05;40.25;;;21.83;;
46322;SDS011;32044;52.386;13.278;2023-10-13T03:36:37;38.10;;;19.00;;
46322;SDS011;32044;52.386;13.278;2023-10-13T03:39:21;33.60;;;18.73;;
46322;SDS011;32044;52.386;13.278;2023-10-13T03:41:56;41.70;;;20.13;;
46322;SDS011;32044;52.386;13.278;2023-10-13T03:44:25;34.17;;;18.60;;
46322;SDS011;32044;52.386;13.278;2023-10-13T03:46:57;40.90;;;19.57;;
46322;SDS011;32044;52.386;13.278;2023-10-13T03:49:36;39.88;;;21.10;;
46322;SDS011;32044;52.386;13.278;2023-10-13T03:52:04;40.15;;;21.23;;
46322;SDS011;32044;52.386;13.278;2023-10-13T03:54:36;38.50;;;20.35;;
46322;SDS011;32044;52.386;13.278;2023-10-13T03:57:07;44.30;;;22.33;;
46322;SDS011;32044;52.386;13.278;2023-10-13T03:59:37;32.80;;;19.77;;
46322;SDS011;32044;52.386;13.278;2023-10-13T04:02:06;52.10;;;22.75;;
46322;SDS011;32044;52.386;13.278;2023-10-13T04:04:45;41.47;;;21.70;;
46322;SDS011;32044;52.386;13.278;2023-10-13T04:07:16;45.28;;;22.42;;
46322;SDS011;32044;52.386;13.278;2023-10-13T04:09:57;50.72;;;24.83;;
46322;SDS011;32044;52.386;13.278;2023-10-13T04:13:06;46.42;;;24.77;;
46322;SDS011;32044;52.386;13.278;2023-10-13T04:16:03;50.22;;;24.38;;
46322;SDS011;32044;52.386;13.278;2023-10-13T04:19:01;47.05;;;23.85;;
46322;SDS011;32044;52.386;13.278;2023-10-13T04:21:37;46.47;;;23.00;;
46322;SDS011;32044;52.386;13.278;2023-10-13T04:24:21;52.00;;;24.58;;
46322;SDS011;32044;52.386;13.278;2023-10-13T04:27:05;48.40;;;25.17;;
46322;SDS011;32044;52.386;13.278;2023-10-13T04:29:50;47.63;;;24.92;;
46322;SDS011;32044;52.386;13.278;2023-10-13T04:32:36;44.58;;;24.77;;
46322;SDS011;32044;52.386;13.278;2023-10-13T04:35:08;48.88;;;25.67;;
46322;SDS011;32044;52.386;13.278;2023-10-13T04:37:46;52.97;;;25.60;;
46322;SDS011;32044;52.386;13.278;2023-10-13T04:40:18;51.25;;;25.80;;
46322;SDS011;32044;52.386;13.278;2023-10-13T04:42:51;52.13;;;24.92;;
46322;SDS011;32044;52.386;13.278;2023-10-13T04:45:20;52.78;;;25.25;;
46322;SDS011;32044;52.386;13.278;2023-10-13T04:48:13;49.08;;;25.58;;
46322;SDS011;32044;52.386;13.278;2023-10-13T04:50:44;48.53;;;24.58;;
46322;SDS011;32044;52.386;13.278;2023-10-13T04:53:15;53.70;;;26.75;;
46322;SDS011;32044;52.386;13.278;2023-10-13T04:56:00;52.17;;;25.60;;
46322;SDS011;32044;52.386;13.278;2023-10-13T04:58:55;54.72;;;27.33;;
46322;SDS011;32044;52.386;13.278;2023-10-13T05:01:40;54.70;;;26.60;;
46322;SDS011;32044;52.386;13.278;2023-10-13T05:04:21;52.28;;;26.85;;
46322;SDS011;32044;52.386;13.278;2023-10-13T05:07:04;47.30;;;26.60;;
46322;SDS011;32044;52.386;13.278;2023-10-13T05:09:50;51.78;;;27.27;;
46322;SDS011;32044;52.386;13.278;2023-10-13T05:12:35;54.78;;;28.20;;
46322;SDS011;32044;52.386;13.278;2023-10-13T05:15:21;55.85;;;27.23;;
46322;SDS011;32044;52.386;13.278;2023-10-13T05:18:06;49.17;;;26.85;;
46322;SDS011;32044;52.386;13.278;2023-10-13T05:20:54;54.05;;;27.05;;
46322;SDS011;32044;52.386;13.278;2023-10-13T05:23:40;53.80;;;28.48;;
46322;SDS011;32044;52.386;13.278;2023-10-13T05:26:26;45.63;;;27.00;;
46322;SDS011;32044;52.386;13.278;2023-10-13T05:29:12;47.38;;;27.08;;
46322;SDS011;32044;52.386;13.278;2023-10-13T05:31:58;57.70;;;28.17;;
46322;SDS011;32044;52.386;13.278;2023-10-13T05:34:43;53.92;;;29.00;;
46322;SDS011;32044;52.386;13.278;2023-10-13T05:37:28;45.97;;;27.65;;
46322;SDS011;32044;52.386;13.278;2023-10-13T05:40:14;48.40;;;27.40;;
46322;SDS011;32044;52.386;13.278;2023-10-13T05:43:01;51.83;;;27.52;;
46322;SDS011;32044;52.386;13.278;2023-10-13T05:45:46;45.22;;;27.98;;
46322;SDS011;32044;52.386;13.278;2023-10-13T05:48:31;48.17;;;28.75;;
46322;SDS011;32044;52.386;13.278;2023-10-13T05:51:18;49.45;;;28.25;;
46322;SDS011;32044;52.386;13.278;2023-10-13T05:54:10;48.13;;;28.65;;
46322;SDS011;32044;52.386;13.278;2023-10-13T05:56:56;47.67;;;27.00;;
46322;SDS011;32044;52.386;13.278;2023-10-13T05:59:38;47.20;;;26.65;;
46322;SDS011;32044;52.386;13.278;2023-10-13T06:02:24;40.67;;;26.30;;
46322;SDS011;32044;52.386;13.278;2023-10-13T06:05:10;44.28;;;25.92;;
46322;SDS011;32044;52.386;13.278;2023-10-13T06:07:56;47.20;;;26.35;;
46322;SDS011;32044;52.386;13.278;2023-10-13T06:10:42;41.38;;;24.20;;
46322;SDS011;32044;52.386;13.278;2023-10-13T06:13:28;27.80;;;20.75;;
46322;SDS011;32044;52.386;13.278;2023-10-13T06:16:20;30.33;;;18.65;;
46322;SDS011;32044;52.386;13.278;2023-10-13T06:19:06;22.35;;;15.20;;
46322;SDS011;32044;52.386;13.278;2023-10-13T06:21:51;23.95;;;13.85;;
46322;SDS011;32044;52.386;13.278;2023-10-13T06:24:36;24.88;;;14.38;;
46322;SDS011;32044;52.386;13.278;2023-10-13T06:27:21;21.15;;;14.60;;
46322;SDS011;32044;52.386;13.278;2023-10-13T06:30:07;22.30;;;15.73;;
46322;SDS011;32044;52.386;13.278;2023-10-13T06:32:36;23.30;;;14.77;;
46322;SDS011;32044;52.386;13.278;2023-10-13T06:35:06;24.02;;;14.57;;
46322;SDS011;32044;52.386;13.278;2023-10-13T06:37:34;20.30;;;13.48;;
46322;SDS011;32044;52.386;13.278;2023-10-13T06:40:09;23.80;;;15.05;;
46322;SDS011;32044;52.386;13.278;2023-10-13T06:42:48;17.45;;;13.30;;
46322;SDS011;32044;52.386;13.278;2023-10-13T06:45:16;21.13;;;12.88;;
46322;SDS011;32044;52.386;13.278;2023-10-13T06:47:46;15.48;;;11.60;;
46322;SDS011;32044;52.386;13.278;2023-10-13T06:50:15;20.25;;;11.35;;
46322;SDS011;32044;52.386;13.278;2023-10-13T06:52:45;15.52;;;9.13;;
46322;SDS011;32044;52.386;13.278;2023-10-13T06:55:14;15.30;;;9.57;;
46322;SDS011;32044;52.386;13.278;2023-10-13T06:57:43;13.00;;;9.50;;
46322;SDS011;32044;52.386;13.278;2023-10-13T07:00:13;13.93;;;8.50;;
46322;SDS011;32044;52.386;13.278;2023-10-13T07:02:55;12.23;;;8.50;;
46322;SDS011;32044;52.386;13.278;2023-10-13T07:05:35;14.57;;;8.90;;
46322;SDS011;32044;52.386;13.278;2023-10-13T07:08:04;11.93;;;8.48;;
46322;SDS011;32044;52.386;13.278;2023-10-13T07:10:32;14.68;;;9.48;;
46322;SDS011;32044;52.386;13.278;2023-10-13T07:13:11;13.90;;;9.30;;
46322;SDS011;32044;52.386;13.278;2023-10-13T07:15:39;16.17;;;9.27;;
46322;SDS011;32044;52.386;13.278;2023-10-13T07:18:13;17.58;;;10.70;;
46322;SDS011;32044;52.386;13.278;2023-10-13T07:20:42;14.55;;;10.23;;
46322;SDS011;32044;52.386;13.278;2023-10-13T07:23:13;15.75;;;10.57;;
46322;SDS011;32044;52.386;13.278;2023-10-13T07:25:51;16.02;;;10.25;;
46322;SDS011;32044;52.386;13.278;2023-10-13T07:28:20;15.70;;;9.98;;
46322;SDS011;32044;52.386;13.278;2023-10-13T07:30:47;19.60;;;10.60;;
46322;SDS011;32044;52.386;13.278;2023-10-13T07:33:39;15.02;;;9.75;;
46322;SDS011;32044;52.386;13.278;2023-10-13T07:36:08;19.98;;;10.63;;
46322;SDS011;32044;52.386;13.278;2023-10-13T07:38:44;12.80;;;9.52;;
46322;SDS011;32044;52.386;13.278;2023-10-13T07:41:28;11.93;;;9.20;;
46322;SDS011;32044;52.386;13.278;2023-10-13T07:43:56;13.70;;;10.00;;
46322;SDS011;32044;52.386;13.278;2023-10-13T07:46:25;11.82;;;9.40;;
46322;SDS011;32044;52.386;13.278;2023-10-13T07:48:59;11.82;;;9.18;;
46322;SDS011;32044;52.386;13.278;2023-10-13T07:51:37;13.02;;;9.25;;
46322;SDS011;32044;52.386;13.278;2023-10-13T07:54:10;15.18;;;9.02;;
46322;SDS011;32044;52.386;13.278;2023-10-13T07:56:41;13.35;;;9.20;;
46322;SDS011;32044;52.386;13.278;2023-10-13T07:59:08;17.00;;;9.10;;
46322;SDS011;32044;52.386;13.278;2023-10-13T08:01:36;15.60;;;8.88;;
46322;SDS011;32044;52.386;13.278;2023-10-13T08:04:10;12.40;;;8.82;;
46322;SDS011;32044;52.386;13.278;2023-10-13T08:06:38;19.17;;;9.15;;
46322;SDS011;32044;52.386;13.278;2023-10-13T08:09:07;11.23;;;7.25;;
46322;SDS011;32044;52.386;13.278;2023-10-13T08:11:36;12.60;;;8.57;;
46322;SDS011;32044;52.386;13.278;2023-10-13T08:14:04;13.20;;;9.18;;
46322;SDS011;32044;52.386;13.278;2023-10-13T08:17:04;14.98;;;9.02;;
46322;SDS011;32044;52.386;13.278;2023-10-13T08:19:35;15.40;;;9.27;;
46322;SDS011;32044;52.386;13.278;2023-10-13T08:22:12;17.60;;;10.70;;
46322;SDS011;32044;52.386;13.278;2023-10-13T08:24:52;15.98;;;9.10;;
46322;SDS011;32044;52.386;13.278;2023-10-13T08:27:25;15.45;;;9.38;;
46322;SDS011;32044;52.386;13.278;2023-10-13T08:30:02;15.88;;;8.95;;
46322;SDS011;32044;52.386;13.278;2023-10-13T08:32:55;16.83;;;7.82;;
46322;SDS011;32044;52.386;13.278;2023-10-13T08:35:26;14.15;;;8.57;;
46322;SDS011;32044;52.386;13.278;2023-10-13T08:38:02;9.95;;;7.95;;
46322;SDS011;32044;52.386;13.278;2023-10-13T08:40:57;14.48;;;8.63;;
46322;SDS011;32044;52.386;13.278;2023-10-13T08:43:43;19.38;;;9.82;;
46322;SDS011;32044;52.386;13.278;2023-10-13T08:46:17;11.27;;;8.60;;
46322;SDS011;32044;52.386;13.278;2023-10-13T08:48:57;10.90;;;8.02;;
46322;SDS011;32044;52.386;13.278;2023-10-13T08:51:43;10.63;;;8.15;;
46322;SDS011;32044;52.386;13.278;2023-10-13T08:54:12;10.45;;;7.43;;
46322;SDS011;32044;52.386;13.278;2023-10-13T08:56:47;12.20;;;7.88;;
46322;SDS011;32044;52.386;13.278;2023-10-13T08:59:21;13.55;;;8.85;;
46322;SDS011;32044;52.386;13.278;2023-10-13T09:01:59;12.75;;;8.43;;
46322;SDS011;32044;52.386;13.278;2023-10-13T09:04:42;13.85;;;8.32;;
46322;SDS011;32044;52.386;13.278;2023-10-13T09:07:11;16.50;;;8.63;;
46322;SDS011;32044;52.386;13.278;2023-10-13T09:09:49;14.82;;;8.70;;
46322;SDS011;32044;52.386;13.278;2023-10-13T09:12:38;10.98;;;8.15;;
46322;SDS011;32044;52.386;13.278;2023-10-13T09:15:30;15.52;;;9.15;;
46322;SDS011;32044;52.386;13.278;2023-10-13T09:18:23;12.45;;;7.80;;
46322;SDS011;32044;52.386;13.278;2023-10-13T09:21:08;10.55;;;7.50;;
46322;SDS011;32044;52.386;13.278;2023-10-13T09:24:02;13.82;;;7.72;;
46322;SDS011;32044;52.386;13.278;2023-10-13T09:26:50;13.80;;;8.88;;
46322;SDS011;32044;52.386;13.278;2023-10-13T09:29:23;13.63;;;8.35;;
46322;SDS011;32044;52.386;13.278;2023-10-13T09:32:00;14.95;;;7.93;;
46322;SDS011;32044;52.386;13.278;2023-10-13T09:34:30;11.57;;;7.82;;
46322;SDS011;32044;52.386;13.278;2023-10-13T09:36:58;11.65;;;8.80;;
46322;SDS011;32044;52.386;13.278;2023-10-13T09:39:30;13.45;;;8.38;;
46322;SDS011;32044;52.386;13.278;2023-10-13T09:42:08;15.15;;;8.20;;
46322;SDS011;32044;52.386;13.278;2023-10-13T09:44:38;16.77;;;9.18;;
46322;SDS011;32044;52.386;13.278;2023-10-13T09:47:08;10.75;;;8.00;;
46322;SDS011;32044;52.386;13.278;2023-10-13T09:49:44;12.70;;;8.02;;
46322;SDS011;32044;52.386;13.278;2023-10-13T09:52:13;11.57;;;8.48;;
46322;SDS011;32044;52.386;13.278;2023-10-13T09:54:53;12.60;;;7.72;;
46322;SDS011;32044;52.386;13.278;2023-10-13T09:57:30;10.07;;;7.57;;
46322;SDS011;32044;52.386;13.278;2023-10-13T10:00:09;10.50;;;7.40;;
46322;SDS011;32044;52.386;13.278;2023-10-13T10:02:55;11.75;;;7.57;;
46322;SDS011;32044;52.386;13.278;2023-10-13T10:05:41;11.80;;;7.30;;
46322;SDS011;32044;52.386;13.278;2023-10-13T10:08:08;9.48;;;6.88;;
46322;SDS011;32044;52.386;13.278;2023-10-13T10:10:47;10.88;;;6.70;;
46322;SDS011;32044;52.386;13.278;2023-10-13T10:13:21;14.80;;;6.95;;
46322;SDS011;32044;52.386;13.278;2023-10-13T10:15:52;9.82;;;6.70;;
46322;SDS011;32044;52.386;13.278;2023-10-13T10:18:21;11.07;;;7.18;;
46322;SDS011;32044;52.386;13.278;2023-10-13T10:21:02;9.68;;;6.80;;
46322;SDS011;32044;52.386;13.278;2023-10-13T10:23:33;15.00;;;7.53;;
46322;SDS011;32044;52.386;13.278;2023-10-13T10:26:13;15.35;;;7.43;;
46322;SDS011;32044;52.386;13.278;2023-10-13T10:28:46;13.50;;;8.10;;
46322;SDS011;32044;52.386;13.278;2023-10-13T10:31:14;10.00;;;7.78;;
46322;SDS011;32044;52.386;13.278;2023-10-13T10:33:43;12.80;;;6.70;;
46322;SDS011;32044;52.386;13.278;2023-10-13T10:36:12;13.23;;;8.05;;
46322;SDS011;32044;52.386;13.278;2023-10-13T10:38:51;12.27;;;7.10;;
46322;SDS011;32044;52.386;13.278;2023-10-13T10:41:26;12.02;;;7.03;;
46322;SDS011;32044;52.386;13.278;2023-10-13T10:44:09;12.27;;;7.18;;
46322;SDS011;32044;52.386;13.278;2023-10-13T10:46:42;9.57;;;6.80;;
46322;SDS011;32044;52.386;13.278;2023-10-13T10:49:18;10.07;;;7.20;;
46322;SDS011;32044;52.386;13.278;2023-10-13T10:51:55;9.30;;;7.07;;
46322;SDS011;32044;52.386;13.278;2023-10-13T10:54:26;15.70;;;7.40;;
46322;SDS011;32044;52.386;13.278;2023-10-13T10:56:59;11.35;;;7.32;;
46322;SDS011;32044;52.386;13.278;2023-10-13T10:59:38;16.33;;;7.93;;
46322;SDS011;32044;52.386;13.278;2023-10-13T11:02:06;14.02;;;7.63;;
46322;SDS011;32044;52.386;13.278;2023-10-13T11:04:35;12.68;;;7.78;;
46322;SDS011;32044;52.386;13.278;2023-10-13T11:09:35;10.15;;;7.38;;
46322;SDS011;32044;52.386;13.278;2023-10-13T11:12:14;12.25;;;8.23;;
46322;SDS011;32044;52.386;13.278;2023-10-13T11:14:43;11.20;;;7.93;;
46322;SDS011;32044;52.386;13.278;2023-10-13T11:17:18;12.60;;;7.95;;
46322;SDS011;32044;52.386;13.278;2023-10-13T11:19:50;12.48;;;7.88;;
46322;SDS011;32044;52.386;13.278;2023-10-13T11:22:20;14.13;;;8.38;;
46322;SDS011;32044;52.386;13.278;2023-10-13T11:24:59;11.15;;;7.32;;
46322;SDS011;32044;52.386;13.278;2023-10-13T11:27:37;9.60;;;7.07;;
46322;SDS011;32044;52.386;13.278;2023-10-13T11:30:21;12.23;;;7.53;;
46322;SDS011;32044;52.386;13.278;2023-10-13T11:32:56;11.98;;;6.82;;
46322;SDS011;32044;52.386;13.278;2023-10-13T11:35:25;14.30;;;7.75;;
46322;SDS011;32044;52.386;13.278;2023-10-13T11:37:55;12.75;;;7.40;;
46322;SDS011;32044;52.386;13.278;2023-10-13T11:40:29;16.15;;;7.72;;
46322;SDS011;32044;52.386;13.278;2023-10-13T11:43:35;12.05;;;6.93;;
46322;SDS011;32044;52.386;13.278;2023-10-13T11:46:20;13.35;;;6.78;;
46322;SDS011;32044;52.386;13.278;2023-10-13T11:49:03;10.57;;;6.55;;
46322;SDS011;32044;52.386;13.278;2023-10-13T11:51:43;14.25;;;6.47;;
46322;SDS011;32044;52.386;13.278;2023-10-13T11:54:12;12.18;;;6.00;;
46322;SDS011;32044;52.386;13.278;2023-10-13T11:56:40;13.77;;;6.22;;
46322;SDS011;32044;52.386;13.278;2023-10-13T11:59:10;14.10;;;6.82;;
46322;SDS011;32044;52.386;13.278;2023-10-13T12:01:44;13.30;;;6.60;;
46322;SDS011;32044;52.386;13.278;2023-10-13T12:04:29;13.57;;;6.90;;
46322;SDS011;32044;52.386;13.278;2023-10-13T12:07:07;14.77;;;6.85;;
46322;SDS011;32044;52.386;13.278;2023-10-13T12:09:51;12.60;;;5.90;;
46322;SDS011;32044;52.386;13.278;2023-10-13T12:12:29;9.98;;;6.03;;
46322;SDS011;32044;52.386;13.278;2023-10-13T12:14:59;17.80;;;6.70;;
46322;SDS011;32044;52.386;13.278;2023-10-13T12:17:36;15.60;;;6.18;;
46322;SDS011;32044;52.386;13.278;2023-10-13T12:20:07;10.40;;;6.28;;
46322;SDS011;32044;52.386;13.278;2023-10-13T12:22:37;11.60;;;5.57;;
46322;SDS011;32044;52.386;13.278;2023-10-13T12:25:06;10.98;;;5.90;;
46322;SDS011;32044;52.386;13.278;2023-10-13T12:27:45;16.80;;;5.68;;
46322;SDS011;32044;52.386;13.278;2023-10-13T12:30:16;11.25;;;5.60;;
46322;SDS011;32044;52.386;13.278;2023-10-13T12:32:49;14.35;;;5.95;;
46322;SDS011;32044;52.386;13.278;2023-10-13T12:35:25;17.17;;;5.93;;
46322;SDS011;32044;52.386;13.278;2023-10-13T12:37:56;16.88;;;6.22;;
46322;SDS011;32044;52.386;13.278;2023-10-13T12:40:32;14.15;;;5.50;;
46322;SDS011;32044;52.386;13.278;2023-10-13T12:43:17;13.93;;;5.90;;
46322;SDS011;32044;52.386;13.278;2023-10-13T12:46:03;14.70;;;6.43;;
46322;SDS011;32044;52.386;13.278;2023-10-13T12:48:49;12.88;;;6.50;;
46322;SDS011;32044;52.386;13.278;2023-10-13T12:51:30;15.63;;;5.90;;
46322;SDS011;32044;52.386;13.278;2023-10-13T12:54:17;18.60;;;5.97;;
46322;SDS011;32044;52.386;13.278;2023-10-13T12:56:49;14.40;;;5.90;;
46322;SDS011;32044;52.386;13.278;2023-10-13T12:59:23;13.75;;;5.63;;
46322;SDS011;32044;52.386;13.278;2023-10-13T13:01:54;17.95;;;6.47;;
46322;SDS011;32044;52.386;13.278;2023-10-13T13:04:22;13.93;;;5.53;;
46322;SDS011;32044;52.386;13.278;2023-10-13T13:06:52;15.90;;;5.90;;
46322;SDS011;32044;52.386;13.278;2023-10-13T13:09:20;14.30;;;5.88;;
46322;SDS011;32044;52.386;13.278;2023-10-13T13:11:53;13.38;;;6.13;;
46322;SDS011;32044;52.386;13.278;2023-10-13T13:14:24;15.75;;;5.93;;
46322;SDS011;32044;52.386;13.278;2023-10-13T13:19:31;20.98;;;6.35;;
46322;SDS011;32044;52.386;13.278;2023-10-13T13:24:30;15.13;;;5.95;;
46322;SDS011;32044;52.386;13.278;2023-10-13T13:26:58;13.48;;;5.38;;
46322;SDS011;32044;52.386;13.278;2023-10-13T13:29:29;20.63;;;6.07;;
46322;SDS011;32044;52.386;13.278;2023-10-13T13:31:58;15.65;;;5.88;;
46322;SDS011;32044;52.386;13.278;2023-10-13T13:34:26;16.85;;;5.60;;
46322;SDS011;32044;52.386;13.278;2023-10-13T13:36:54;19.05;;;5.85;;
46322;SDS011;32044;52.386;13.278;2023-10-13T13:39:27;13.18;;;6.10;;
46322;SDS011;32044;52.386;13.278;2023-10-13T13:41:56;15.23;;;5.78;;
46322;SDS011;32044;52.386;13.278;2023-10-13T13:44:24;14.68;;;5.97;;
46322;SDS011;32044;52.386;13.278;2023-10-13T13:47:02;15.10;;;6.13;;
46322;SDS011;32044;52.386;13.278;2023-10-13T13:49:32;17.10;;;5.65;;
46322;SDS011;32044;52.386;13.278;2023-10-13T13:52:06;26.48;;;6.20;;
46322;SDS011;32044;52.386;13.278;2023-10-13T13:54:34;20.08;;;5.88;;
46322;SDS011;32044;52.386;13.278;2023-10-13T13:57:02;13.70;;;5.57;;
46322;SDS011;32044;52.386;13.278;2023-10-13T13:59:30;16.70;;;5.68;;
46322;SDS011;32044;52.386;13.278;2023-10-13T14:02:00;11.82;;;5.15;;
46322;SDS011;32044;52.386;13.278;2023-10-13T14:04:46;13.82;;;6.05;;
46322;SDS011;32044;52.386;13.278;2023-10-13T14:07:17;11.10;;;6.15;;
46322;SDS011;32044;52.386;13.278;2023-10-13T14:09:46;14.00;;;6.15;;
46322;SDS011;32044;52.386;13.278;2023-10-13T14:12:18;15.32;;;5.63;;
46322;SDS011;32044;52.386;13.278;2023-10-13T14:14:56;17.75;;;6.45;;
46322;SDS011;32044;52.386;13.278;2023-10-13T14:17:25;15.95;;;5.75;;
46322;SDS011;32044;52.386;13.278;2023-10-13T14:22:23;15.07;;;5.55;;
46322;SDS011;32044;52.386;13.278;2023-10-13T14:24:52;12.40;;;5.68;;
46322;SDS011;32044;52.386;13.278;2023-10-13T14:27:22;12.68;;;5.22;;
46322;SDS011;32044;52.386;13.278;2023-10-13T14:29:50;12.43;;;5.85;;
46322;SDS011;32044;52.386;13.278;2023-10-13T14:32:20;11.25;;;6.20;;
46322;SDS011;32044;52.386;13.278;2023-10-13T14:34:52;15.15;;;6.10;;
46322;SDS011;32044;52.386;13.278;2023-10-13T14:37:23;15.02;;;5.60;;
46322;SDS011;32044;52.386;13.278;2023-10-13T14:39:56;14.38;;;5.70;;
46322;SDS011;32044;52.386;13.278;2023-10-13T14:42:24;15.25;;;5.82;;
46322;SDS011;32044;52.386;13.278;2023-10-13T14:44:52;7.68;;;5.20;;
46322;SDS011;32044;52.386;13.278;2023-10-13T14:47:22;10.45;;;5.25;;
46322;SDS011;32044;52.386;13.278;2023-10-13T14:49:53;12.13;;;5.35;;
46322;SDS011;32044;52.386;13.278;2023-10-13T14:52:22;21.77;;;5.90;;
46322;SDS011;32044;52.386;13.278;2023-10-13T14:54:49;18.05;;;5.88;;
46322;SDS011;32044;52.386;13.278;2023-10-13T14:57:21;14.23;;;5.43;;
46322;SDS011;32044;52.386;13.278;2023-10-13T14:59:51;16.27;;;6.03;;
46322;SDS011;32044;52.386;13.278;2023-10-13T15:02:19;12.45;;;5.95;;
46322;SDS011;32044;52.386;13.278;2023-10-13T15:04:47;13.55;;;6.47;;
46322;SDS011;32044;52.386;13.278;2023-10-13T15:07:17;14.55;;;5.28;;
46322;SDS011;32044;52.386;13.278;2023-10-13T15:09:46;18.13;;;6.22;;
46322;SDS011;32044;52.386;13.278;2023-10-13T15:12:13;13.65;;;5.88;;
46322;SDS011;32044;52.386;13.278;2023-10-13T15:14:48;20.58;;;5.60;;
46322;SDS011;32044;52.386;13.278;2023-10-13T15:17:16;15.43;;;6.25;;
46322;SDS011;32044;52.386;13.278;2023-10-13T15:19:44;16.33;;;6.53;;